createdAt,value
2023-08-07T00:02:20.953Z,0.20
2023-08-07T00:04:51.003Z,0.15
2023-08-07T00:07:19.704Z,0.20
2023-08-07T00:09:47.108Z,0.20
2023-08-07T00:12:14.845Z,0.10
2023-08-07T00:14:42.313Z,0.20
2023-08-07T00:17:09.806Z,0.30
2023-08-07T00:19:37.881Z,0.20
2023-08-07T00:22:05.630Z,0.30
2023-08-07T00:24:33.101Z,0.20
2023-08-07T00:27:00.783Z,0.30
2023-08-07T00:29:28.257Z,0.20
2023-08-07T00:31:55.679Z,0.20
2023-08-07T00:34:23.607Z,0.20
2023-08-07T00:36:51.216Z,0.20
2023-08-07T00:39:18.663Z,0.25
2023-08-07T00:41:46.333Z,0.20
2023-08-07T00:44:15.035Z,0.20
2023-08-07T00:46:43.238Z,0.20
2023-08-07T00:49:13.044Z,0.20
2023-08-07T00:51:40.800Z,0.20
2023-08-07T00:54:09.609Z,0.20
2023-08-07T00:56:38.034Z,0.20
2023-08-07T00:59:05.527Z,0.20
2023-08-07T01:01:32.996Z,0.20
2023-08-07T01:04:01.407Z,0.20
2023-08-07T01:06:28.878Z,0.20
2023-08-07T01:08:56.386Z,0.30
2023-08-07T01:11:47.131Z,0.40
2023-08-07T01:14:32.154Z,0.25
2023-08-07T01:17:07.535Z,0.20
2023-08-07T01:19:35.797Z,0.20
2023-08-07T01:22:09.825Z,0.20
2023-08-07T01:24:40.326Z,0.28
2023-08-07T01:27:20.093Z,0.27
2023-08-07T01:29:51.719Z,0.20
2023-08-07T01:32:48.620Z,0.20
2023-08-07T01:35:17.576Z,0.20
2023-08-07T01:37:46.645Z,0.20
2023-08-07T01:40:14.820Z,0.20
2023-08-07T01:42:42.472Z,0.20
2023-08-07T01:45:10.483Z,0.20
2023-08-07T01:47:38.128Z,0.20
2023-08-07T01:50:07.425Z,0.22
2023-08-07T01:52:35.156Z,0.20
2023-08-07T01:55:03.010Z,0.20
2023-08-07T01:57:31.608Z,0.20
2023-08-07T01:59:59.628Z,0.30
2023-08-07T02:02:27.147Z,0.20
2023-08-07T02:04:54.936Z,0.30
2023-08-07T02:07:22.355Z,0.23
2023-08-07T02:09:49.866Z,0.20
2023-08-07T02:12:17.573Z,0.20
2023-08-07T02:14:45.019Z,0.25
2023-08-07T02:17:12.479Z,0.20
2023-08-07T02:19:40.217Z,0.30
2023-08-07T02:22:07.852Z,0.30
2023-08-07T02:24:35.436Z,0.20
2023-08-07T02:27:03.244Z,0.30
2023-08-07T02:29:31.188Z,0.30
2023-08-07T02:31:58.663Z,0.40
2023-08-07T02:34:26.410Z,0.30
2023-08-07T02:36:53.964Z,0.30
2023-08-07T02:39:22.240Z,0.40
2023-08-07T02:41:50.007Z,0.20
2023-08-07T02:44:18.696Z,0.30
2023-08-07T02:46:46.099Z,0.30
2023-08-07T02:49:13.835Z,0.30
2023-08-07T02:51:41.344Z,0.37
2023-08-07T02:54:08.824Z,0.30
2023-08-07T02:56:36.671Z,0.40
2023-08-07T02:59:04.127Z,0.30
2023-08-07T03:01:31.584Z,0.40
2023-08-07T03:03:59.672Z,0.40
2023-08-07T03:06:27.171Z,0.25
2023-08-07T03:08:54.674Z,0.40
2023-08-07T03:11:22.398Z,0.30
2023-08-07T03:13:50.558Z,0.30
2023-08-07T03:16:18.091Z,0.37
2023-08-07T03:18:46.201Z,0.30
2023-08-07T03:21:13.738Z,0.40
2023-08-07T03:23:41.476Z,0.32
2023-08-07T03:26:18.752Z,0.30
2023-08-07T03:28:50.348Z,0.43
2023-08-07T03:31:18.465Z,0.30
2023-08-07T03:33:46.692Z,0.35
2023-08-07T03:36:15.229Z,0.40
2023-08-07T03:38:43.246Z,0.50
2023-08-07T03:41:11.460Z,0.40
2023-08-07T03:43:41.090Z,0.40
2023-08-07T03:46:08.841Z,0.37
2023-08-07T03:48:37.405Z,0.40
2023-08-07T03:51:11.801Z,0.30
2023-08-07T03:53:40.063Z,0.40
2023-08-07T03:56:07.508Z,0.45
2023-08-07T03:58:35.059Z,0.32
2023-08-07T04:01:03.236Z,0.37
2023-08-07T04:03:30.972Z,0.30
2023-08-07T04:05:58.485Z,0.47
2023-08-07T04:08:25.931Z,0.37
2023-08-07T04:11:05.758Z,0.47
2023-08-07T04:13:34.387Z,0.52
2023-08-07T04:16:05.018Z,0.40
2023-08-07T04:18:33.110Z,0.40
2023-08-07T04:21:02.338Z,0.50
2023-08-07T04:23:30.063Z,0.40
2023-08-07T04:25:57.716Z,0.40
2023-08-07T04:28:25.462Z,0.40
2023-08-07T04:30:53.316Z,0.40
2023-08-07T04:33:21.903Z,0.50
2023-08-07T04:35:49.759Z,0.40
2023-08-07T04:38:18.134Z,0.40
2023-08-07T04:40:52.061Z,0.50
2023-08-07T04:43:26.100Z,0.47
2023-08-07T04:45:54.226Z,0.60
2023-08-07T04:48:23.492Z,0.40
2023-08-07T04:50:51.032Z,0.47
2023-08-07T04:53:18.490Z,0.70
2023-08-07T04:55:47.492Z,0.40
2023-08-07T04:58:15.009Z,0.45
2023-08-07T05:00:42.773Z,0.40
2023-08-07T05:03:11.701Z,0.57
2023-08-07T05:05:39.427Z,0.45
2023-08-07T05:08:07.023Z,0.50
2023-08-07T05:10:34.814Z,0.50
2023-08-07T05:13:02.306Z,0.60
2023-08-07T05:15:31.722Z,0.50
2023-08-07T05:17:59.526Z,0.50
2023-08-07T05:20:27.029Z,0.40
2023-08-07T05:22:54.657Z,0.68
2023-08-07T05:25:22.808Z,0.50
2023-08-07T05:27:50.310Z,0.60
2023-08-07T05:30:17.752Z,0.47
2023-08-07T05:32:45.500Z,0.45
2023-08-07T05:35:13.134Z,0.57
2023-08-07T05:37:40.673Z,0.45
2023-08-07T05:40:08.783Z,0.57
2023-08-07T05:42:37.278Z,0.60
2023-08-07T05:45:05.200Z,0.55
2023-08-07T05:47:34.715Z,0.60
2023-08-07T05:50:02.465Z,0.62
2023-08-07T05:52:31.736Z,0.50
2023-08-07T05:54:59.436Z,0.50
2023-08-07T05:57:26.873Z,0.60
2023-08-07T05:59:54.470Z,0.45
2023-08-07T06:02:22.230Z,0.60
2023-08-07T06:04:50.122Z,0.40
2023-08-07T06:07:17.878Z,0.60
2023-08-07T06:09:45.413Z,0.50
2023-08-07T06:12:13.395Z,0.50
2023-08-07T06:14:40.871Z,0.50
2023-08-07T06:17:08.292Z,0.40
2023-08-07T06:19:35.988Z,0.40
2023-08-07T06:22:03.543Z,0.40
2023-08-07T06:24:31.022Z,0.45
2023-08-07T06:26:58.849Z,0.40
2023-08-07T06:29:26.325Z,0.40
2023-08-07T06:31:53.879Z,0.43
2023-08-07T06:34:21.693Z,0.50
2023-08-07T06:36:49.168Z,0.43
2023-08-07T06:39:16.670Z,0.30
2023-08-07T06:41:44.351Z,0.40
2023-08-07T06:44:12.854Z,0.40
2023-08-07T06:46:40.355Z,0.40
2023-08-07T06:49:08.100Z,0.40
2023-08-07T06:51:35.610Z,0.37
2023-08-07T06:54:03.073Z,0.40
2023-08-07T06:56:31.027Z,0.40
2023-08-07T06:58:58.421Z,0.35
2023-08-07T07:01:25.831Z,0.40
2023-08-07T07:03:54.178Z,0.40
2023-08-07T07:06:22.208Z,0.30
2023-08-07T07:08:49.820Z,0.40
2023-08-07T07:11:19.000Z,0.50
2023-08-07T07:13:48.328Z,0.40
2023-08-07T07:16:16.038Z,0.30
2023-08-07T07:18:43.880Z,0.50
2023-08-07T07:21:11.356Z,0.40
2023-08-07T07:23:38.834Z,0.40
2023-08-07T07:26:06.609Z,0.50
2023-08-07T07:28:34.087Z,0.40
2023-08-07T07:31:01.762Z,0.60
2023-08-07T07:33:29.511Z,0.40
2023-08-07T07:35:56.963Z,0.45
2023-08-07T07:38:24.419Z,0.40
2023-08-07T07:40:52.069Z,0.30
2023-08-07T07:43:19.634Z,0.37
2023-08-07T07:45:47.124Z,0.30
2023-08-07T07:48:14.880Z,0.40
2023-08-07T07:50:42.417Z,0.40
2023-08-07T07:53:09.813Z,0.20
2023-08-07T07:55:39.082Z,0.47
2023-08-07T07:58:07.317Z,0.30
2023-08-07T08:00:34.800Z,0.30
2023-08-07T08:03:02.592Z,0.20
2023-08-07T08:05:30.754Z,0.30
2023-08-07T08:07:58.152Z,0.20
2023-08-07T08:10:26.714Z,0.28
2023-08-07T08:12:57.681Z,0.40
2023-08-07T08:15:26.218Z,0.30
2023-08-07T08:17:53.946Z,0.20
2023-08-07T08:20:21.543Z,0.20
2023-08-07T08:22:49.018Z,0.30
2023-08-07T08:25:18.759Z,0.30
2023-08-07T08:27:46.994Z,0.50
2023-08-07T08:30:14.524Z,0.30
2023-08-07T08:32:43.630Z,0.30
2023-08-07T08:35:11.134Z,0.20
2023-08-07T08:37:38.803Z,0.30
2023-08-07T08:40:09.116Z,0.30
2023-08-07T08:42:39.705Z,0.20
2023-08-07T08:45:10.255Z,0.25
2023-08-07T08:47:38.303Z,0.20
2023-08-07T08:50:11.020Z,0.28
2023-08-07T08:52:41.759Z,0.30
2023-08-07T08:55:10.510Z,0.23
2023-08-07T08:57:39.541Z,0.20
2023-08-07T09:00:18.931Z,0.20
2023-08-07T09:02:47.249Z,0.40
2023-08-07T09:05:16.520Z,0.20
2023-08-07T09:07:44.815Z,0.15
2023-08-07T09:10:15.131Z,0.40
2023-08-07T09:13:01.112Z,0.20
2023-08-07T09:15:31.211Z,0.10
2023-08-07T09:18:00.234Z,0.10
2023-08-07T09:20:27.911Z,0.10
2023-08-07T09:22:55.534Z,0.10
2023-08-07T09:25:34.097Z,0.20
2023-08-07T09:28:06.610Z,0.20
2023-08-07T09:30:36.703Z,0.10
2023-08-07T09:33:05.114Z,0.13
2023-08-07T09:35:33.626Z,0.20
2023-08-07T09:38:02.270Z,0.10
2023-08-07T09:40:30.759Z,0.10
2023-08-07T09:43:00.545Z,0.10
2023-08-07T09:45:30.201Z,0.20
2023-08-07T09:48:05.334Z,0.10
2023-08-07T09:50:33.737Z,0.10
2023-08-07T09:53:01.353Z,0.20
2023-08-07T09:55:28.961Z,0.20
2023-08-07T09:57:56.805Z,0.17
2023-08-07T10:00:24.347Z,0.10
2023-08-07T10:02:52.763Z,0.20
2023-08-07T10:05:20.564Z,0.20
2023-08-07T10:07:48.610Z,0.17
2023-08-07T10:10:17.129Z,0.10
2023-08-07T10:12:47.393Z,0.10
2023-08-07T10:15:16.364Z,0.40
2023-08-07T10:17:44.845Z,0.20
2023-08-07T10:20:13.418Z,0.10
2023-08-07T10:22:41.952Z,0.13
2023-08-07T10:25:10.233Z,0.20
2023-08-07T10:27:40.106Z,0.20
2023-08-07T10:30:11.830Z,0.20
2023-08-07T10:32:39.911Z,0.10
2023-08-07T10:35:07.665Z,0.30
2023-08-07T10:37:42.832Z,0.10
2023-08-07T10:40:13.731Z,0.10
2023-08-07T10:43:00.578Z,0.10
2023-08-07T10:45:30.182Z,0.17
2023-08-07T10:48:06.073Z,0.10
2023-08-07T10:50:34.960Z,0.20
2023-08-07T10:53:03.782Z,0.20
2023-08-07T10:55:47.361Z,0.10
2023-08-07T10:58:25.051Z,0.10
2023-08-07T11:00:53.706Z,0.20
2023-08-07T11:03:28.034Z,0.10
2023-08-07T11:05:59.321Z,0.15
2023-08-07T11:08:28.421Z,0.10
2023-08-07T11:10:59.300Z,0.20
2023-08-07T11:13:30.655Z,0.20
2023-08-07T11:15:58.351Z,0.20
2023-08-07T11:18:27.758Z,0.20
2023-08-07T11:20:57.234Z,0.10
2023-08-07T11:23:25.920Z,0.20
2023-08-07T11:25:55.246Z,0.20
2023-08-07T11:28:24.050Z,0.10
2023-08-07T11:30:56.512Z,0.20
2023-08-07T11:33:28.117Z,0.20
2023-08-07T11:35:55.943Z,0.20
2023-08-07T11:38:44.273Z,0.20
2023-08-07T11:41:13.953Z,0.20
2023-08-07T11:43:42.704Z,0.20
2023-08-07T11:46:12.370Z,0.30
2023-08-07T11:48:41.205Z,0.32
2023-08-07T11:51:09.207Z,0.20
2023-08-07T11:53:37.553Z,0.30
2023-08-07T11:56:07.154Z,0.30
2023-08-07T11:58:36.938Z,0.30
2023-08-07T12:01:06.400Z,0.30
2023-08-07T12:03:39.878Z,0.30
2023-08-07T12:06:08.730Z,0.40
2023-08-07T12:08:38.992Z,0.40
2023-08-07T12:11:08.977Z,0.30
2023-08-07T12:13:40.959Z,0.30
2023-08-07T12:16:16.596Z,0.30
2023-08-07T12:18:50.549Z,0.30
2023-08-07T12:21:20.628Z,0.30
2023-08-07T12:23:49.126Z,0.30
2023-08-07T12:26:16.641Z,0.30
2023-08-07T12:28:44.370Z,0.30
2023-08-07T12:31:12.250Z,0.30
2023-08-07T12:33:39.722Z,0.30
2023-08-07T12:36:20.300Z,0.30
2023-08-07T12:38:48.657Z,0.20
2023-08-07T12:43:46.625Z,0.30
2023-08-07T12:48:44.736Z,0.22
2023-08-07T12:51:12.223Z,0.30
2023-08-07T12:53:39.948Z,0.20
2023-08-07T12:56:07.682Z,0.30
2023-08-07T12:58:35.299Z,0.30
2023-08-07T13:01:03.054Z,0.30
2023-08-07T13:03:30.831Z,0.22
2023-08-07T13:05:58.426Z,0.22
2023-08-07T13:08:26.087Z,0.20
2023-08-07T13:10:53.553Z,0.30
2023-08-07T13:13:20.992Z,0.30
2023-08-07T13:15:48.674Z,0.40
2023-08-07T13:18:17.903Z,0.30
2023-08-07T13:20:45.414Z,0.30
2023-08-07T13:23:13.170Z,0.20
2023-08-07T13:25:41.309Z,0.20
2023-08-07T13:28:08.738Z,0.20
2023-08-07T13:30:37.944Z,0.30
2023-08-07T13:33:05.710Z,0.20
2023-08-07T13:35:35.774Z,0.27
2023-08-07T13:38:06.486Z,0.20
2023-08-07T13:40:34.633Z,0.30
2023-08-07T13:43:08.793Z,0.30
2023-08-07T13:45:37.945Z,0.20
2023-08-07T13:48:07.894Z,0.22
2023-08-07T13:50:35.846Z,0.25
2023-08-07T13:53:13.723Z,0.30
2023-08-07T13:55:44.713Z,0.30
2023-08-07T13:58:16.678Z,0.20
2023-08-07T14:00:45.351Z,0.30
2023-08-07T14:03:14.822Z,0.30
2023-08-07T14:05:43.268Z,0.20
2023-08-07T14:08:12.160Z,0.30
2023-08-07T14:10:42.855Z,0.30
2023-08-07T14:13:11.924Z,0.30
2023-08-07T14:15:41.325Z,0.22
2023-08-07T14:18:08.897Z,0.20
2023-08-07T14:20:44.620Z,0.30
2023-08-07T14:23:24.184Z,0.30
2023-08-07T14:25:52.017Z,0.30
2023-08-07T14:28:20.157Z,0.22
2023-08-07T14:30:52.439Z,0.30
2023-08-07T14:33:25.444Z,0.30
2023-08-07T14:35:55.439Z,0.30
2023-08-07T14:38:25.502Z,0.40
2023-08-07T14:40:56.705Z,0.30
2023-08-07T14:43:26.169Z,0.40
2023-08-07T14:45:56.198Z,0.30
2023-08-07T14:48:24.396Z,0.30
2023-08-07T14:50:53.292Z,0.35
2023-08-07T14:53:20.823Z,0.30
2023-08-07T14:55:48.786Z,0.30
2023-08-07T14:58:16.294Z,0.30
2023-08-07T15:00:43.771Z,0.40
2023-08-07T15:03:11.542Z,0.45
2023-08-07T15:05:39.107Z,0.40
2023-08-07T15:08:06.519Z,0.40
2023-08-07T15:10:35.113Z,0.40
2023-08-07T15:13:02.672Z,0.40
2023-08-07T15:15:30.147Z,0.40
2023-08-07T15:17:58.001Z,0.40
2023-08-07T15:20:26.623Z,0.50
2023-08-07T15:22:54.119Z,0.50
2023-08-07T15:25:21.904Z,0.50
2023-08-07T15:27:49.465Z,0.40
2023-08-07T15:30:17.102Z,0.30
2023-08-07T15:32:45.271Z,0.50
2023-08-07T15:35:13.028Z,0.43
2023-08-07T15:37:40.825Z,0.40
2023-08-07T15:40:09.956Z,0.50
2023-08-07T15:42:37.505Z,0.40
2023-08-07T15:45:06.226Z,0.40
2023-08-07T15:47:34.718Z,0.40
2023-08-07T15:50:03.235Z,0.60
2023-08-07T15:52:31.272Z,0.40
2023-08-07T15:54:59.370Z,0.47
2023-08-07T15:57:27.093Z,0.45
2023-08-07T15:59:54.529Z,0.50
2023-08-07T16:02:22.519Z,0.53
2023-08-07T16:04:50.509Z,0.60
2023-08-07T16:07:18.210Z,0.60
2023-08-07T16:09:45.776Z,0.60
2023-08-07T16:12:14.108Z,0.50
2023-08-07T16:14:41.988Z,0.60
2023-08-07T16:17:10.918Z,0.43
2023-08-07T16:19:39.376Z,0.50
2023-08-07T16:22:06.997Z,0.57
2023-08-07T16:24:34.955Z,0.60
2023-08-07T16:27:03.163Z,0.50
2023-08-07T16:29:31.005Z,0.50
2023-08-07T16:31:59.960Z,0.77
2023-08-07T16:34:28.357Z,0.68
2023-08-07T16:36:56.348Z,0.97
2023-08-07T16:39:24.664Z,0.70
2023-08-07T16:41:53.501Z,0.70
2023-08-07T16:44:21.719Z,0.68
2023-08-07T16:46:49.693Z,0.70
2023-08-07T16:49:18.039Z,0.60
2023-08-07T16:51:46.298Z,0.60
2023-08-07T16:54:14.391Z,0.60
2023-08-07T16:56:42.101Z,0.70
2023-08-07T16:59:11.274Z,0.85
2023-08-07T17:01:39.458Z,0.60
2023-08-07T17:04:08.441Z,0.80
2023-08-07T17:06:37.020Z,0.80
2023-08-07T17:09:04.928Z,0.80
2023-08-07T17:11:33.159Z,0.80
2023-08-07T17:14:01.579Z,0.85
2023-08-07T17:16:29.380Z,0.90
2023-08-07T17:18:57.943Z,0.70
2023-08-07T17:21:26.156Z,0.60
2023-08-07T17:23:54.150Z,0.80
2023-08-07T17:26:24.443Z,0.80
2023-08-07T17:28:58.153Z,0.90
2023-08-07T17:31:27.679Z,0.90
2023-08-07T17:33:55.265Z,1.10
2023-08-07T17:36:23.602Z,0.80
2023-08-07T17:38:52.565Z,0.80
2023-08-07T17:41:21.921Z,0.80
2023-08-07T17:43:50.533Z,1.00
2023-08-07T17:46:18.863Z,1.00
2023-08-07T17:48:46.900Z,0.90
2023-08-07T17:51:14.969Z,0.70
2023-08-07T17:53:44.695Z,0.77
2023-08-07T17:56:12.980Z,1.00
2023-08-07T17:58:40.813Z,1.00
2023-08-07T18:01:08.646Z,0.93
2023-08-07T18:03:37.151Z,0.90
2023-08-07T18:06:05.107Z,0.80
2023-08-07T18:08:35.343Z,1.00
2023-08-07T18:11:04.544Z,0.90
2023-08-07T18:13:33.173Z,1.10
2023-08-07T18:16:02.923Z,1.10
2023-08-07T18:18:31.724Z,0.93
2023-08-07T18:20:59.462Z,0.90
2023-08-07T18:23:28.096Z,1.00
2023-08-07T18:25:56.420Z,1.10
2023-08-07T18:28:24.378Z,1.10
2023-08-07T18:30:52.819Z,1.02
2023-08-07T18:33:23.297Z,1.05
2023-08-07T18:35:54.879Z,0.98
2023-08-07T18:38:23.724Z,1.00
2023-08-07T18:40:51.628Z,0.90
2023-08-07T18:43:22.271Z,0.80
2023-08-07T18:45:51.275Z,0.87
2023-08-07T18:48:19.053Z,0.82
2023-08-07T18:50:47.237Z,0.90
2023-08-07T18:53:15.439Z,0.77
2023-08-07T18:55:43.549Z,0.90
2023-08-07T18:58:12.664Z,0.80
2023-08-07T19:00:41.572Z,0.90
2023-08-07T19:03:11.582Z,0.95
2023-08-07T19:05:40.638Z,0.93
2023-08-07T19:08:09.281Z,0.82
2023-08-07T19:10:39.701Z,0.90
2023-08-07T19:13:10.310Z,0.90
2023-08-07T19:15:39.992Z,1.00
2023-08-07T19:18:09.157Z,0.80
2023-08-07T19:20:37.252Z,0.82
2023-08-07T19:23:05.556Z,1.00
2023-08-07T19:25:33.288Z,0.85
2023-08-07T19:28:01.298Z,1.00
2023-08-07T19:30:31.990Z,0.95
2023-08-07T19:33:00.646Z,1.00
2023-08-07T19:35:29.059Z,1.00
2023-08-07T19:37:56.709Z,0.90
2023-08-07T19:40:28.610Z,1.00
2023-08-07T19:42:56.719Z,1.00
2023-08-07T19:45:27.129Z,1.95
2023-08-07T19:47:56.468Z,5.57
2023-08-07T19:50:26.016Z,4.35
2023-08-07T19:52:55.913Z,3.53
2023-08-07T19:55:24.269Z,5.47
2023-08-07T19:57:52.685Z,4.45
2023-08-07T20:00:21.733Z,3.12
2023-08-07T20:02:51.061Z,2.03
2023-08-07T20:05:19.554Z,1.58
2023-08-07T20:07:47.455Z,1.70
2023-08-07T20:10:22.387Z,1.30
2023-08-07T20:12:53.406Z,1.40
2023-08-07T20:15:22.157Z,1.30
2023-08-07T20:17:50.848Z,1.40
2023-08-07T20:20:21.529Z,1.02
2023-08-07T20:22:50.305Z,1.00
2023-08-07T20:25:18.049Z,1.00
2023-08-07T20:27:46.371Z,1.27
2023-08-07T20:30:14.825Z,1.00
2023-08-07T20:32:43.110Z,1.20
2023-08-07T20:35:11.485Z,1.23
2023-08-07T20:37:39.976Z,1.20
2023-08-07T20:40:09.123Z,1.10
2023-08-07T20:42:36.915Z,1.20
2023-08-07T20:45:06.026Z,0.90
2023-08-07T20:47:34.028Z,1.20
2023-08-07T20:50:02.472Z,1.20
2023-08-07T20:52:30.956Z,1.00
2023-08-07T20:54:59.163Z,1.00
2023-08-07T20:57:26.985Z,1.15
2023-08-07T20:59:54.889Z,1.02
2023-08-07T21:02:22.407Z,0.90
2023-08-07T21:04:49.882Z,1.10
2023-08-07T21:07:18.320Z,0.90
2023-08-07T21:09:46.024Z,1.08
2023-08-07T21:12:13.515Z,1.00
2023-08-07T21:14:41.278Z,1.00
2023-08-07T21:17:08.761Z,0.80
2023-08-07T21:19:36.830Z,0.82
2023-08-07T21:22:04.752Z,0.80
2023-08-07T21:24:32.169Z,0.90
2023-08-07T21:26:59.681Z,1.00
2023-08-07T21:29:27.361Z,0.90
2023-08-07T21:31:54.788Z,0.98
2023-08-07T21:34:22.353Z,0.90
2023-08-07T21:36:50.033Z,0.80
2023-08-07T21:39:17.444Z,1.00
2023-08-07T21:41:44.866Z,0.90
2023-08-07T21:44:13.355Z,0.88
2023-08-07T21:46:40.869Z,0.75
2023-08-07T21:49:08.299Z,0.80
2023-08-07T21:51:35.938Z,0.80
2023-08-07T21:54:03.322Z,0.80
2023-08-07T21:56:30.733Z,0.70
2023-08-07T21:58:58.453Z,0.70
2023-08-07T22:01:26.884Z,0.70
2023-08-07T22:03:55.050Z,0.75
2023-08-07T22:06:22.544Z,0.70
2023-08-07T22:08:49.952Z,0.77
2023-08-07T22:11:17.737Z,0.80
2023-08-07T22:13:46.250Z,0.60
2023-08-07T22:16:13.843Z,0.80
2023-08-07T22:18:42.058Z,0.60
2023-08-07T22:21:09.512Z,0.70
2023-08-07T22:23:36.966Z,0.70
2023-08-07T22:26:04.717Z,0.60
2023-08-07T22:28:32.194Z,0.62
2023-08-07T22:30:59.539Z,0.60
2023-08-07T22:33:27.396Z,0.70
2023-08-07T22:35:54.877Z,0.60
2023-08-07T22:38:22.299Z,0.60
2023-08-07T22:40:50.184Z,0.60
2023-08-07T22:43:17.661Z,0.50
2023-08-07T22:45:50.439Z,0.55
2023-08-07T22:48:18.381Z,0.60
2023-08-07T22:50:45.833Z,0.55
2023-08-07T22:53:13.333Z,0.60
2023-08-07T22:55:41.708Z,0.60
2023-08-07T22:58:09.570Z,0.43
2023-08-07T23:00:37.532Z,0.60
2023-08-07T23:03:05.847Z,0.50
2023-08-07T23:05:33.689Z,0.50
2023-08-07T23:08:01.391Z,0.50
2023-08-07T23:10:30.043Z,0.50
2023-08-07T23:12:57.620Z,0.52
2023-08-07T23:15:25.045Z,0.50
2023-08-07T23:17:52.949Z,0.40
2023-08-07T23:20:20.459Z,0.60
2023-08-07T23:22:47.880Z,0.40
2023-08-07T23:25:16.312Z,0.50
2023-08-07T23:27:44.296Z,0.40
2023-08-07T23:30:11.972Z,0.40
2023-08-07T23:32:41.402Z,0.50
2023-08-07T23:35:09.106Z,0.55
2023-08-07T23:37:36.549Z,0.40
2023-08-07T23:40:05.233Z,0.50
2023-08-07T23:42:32.676Z,0.60
2023-08-07T23:45:00.383Z,0.50
2023-08-07T23:47:28.056Z,0.50
2023-08-07T23:49:55.497Z,0.50
2023-08-07T23:52:22.908Z,0.43
2023-08-07T23:54:50.635Z,0.55
2023-08-07T23:57:18.054Z,0.57
2023-08-07T23:59:45.982Z,0.53
